Time;durP1;ratioP1;P1;durP2;ratioP2;P2;SDS_P1;SDS_P2;PMS_P1;PMS_P2;Temp;Humidity;BMP_temperature;BMP_pressure;BME280_temperature;BME280_humidity;BME280_pressure;Samples;Min_cycle;Max_cycle;Signal;HPM_P1;HPM_P2
2023/08/11 00:00:47;;;;;;;;;19.00;19.00;;;;;21.19;49.58;101448.72;110257;1249;22254;-38
2023/08/11 00:03:31;;;;;;;;;18.00;15.00;;;;;21.19;49.63;101450.52;110267;1260;19996;-39
2023/08/11 00:05:56;;;;;;;;;15.50;15.50;;;;;21.20;49.41;101454.07;110268;1257;22877;-39
2023/08/11 00:08:22;;;;;;;;;18.00;16.00;;;;;21.18;49.55;101460.59;110263;1250;22395;-39
2023/08/11 00:10:49;;;;;;;;;19.00;17.00;;;;;21.16;49.49;101458.33;110243;1251;22104;-39
2023/08/11 00:13:15;;;;;;;;;18.50;18.00;;;;;21.15;49.55;101460.67;110265;1251;22142;-40
2023/08/11 00:15:41;;;;;;;;;23.00;19.00;;;;;21.14;49.52;101457.93;110278;1251;20523;-39
2023/08/11 00:18:07;;;;;;;;;22.50;21.50;;;;;21.14;49.42;101455.98;110275;1251;19976;-39
2023/08/11 00:20:33;;;;;;;;;19.00;19.00;;;;;21.13;49.48;101454.91;110269;1251;19892;-39
2023/08/11 00:22:59;;;;;;;;;18.00;16.00;;;;;21.12;49.34;101452.52;110289;1250;20871;-39
2023/08/11 00:25:25;;;;;;;;;22.50;20.00;;;;;21.13;49.26;101453.61;110254;1250;21813;-39
2023/08/11 00:27:51;;;;;;;;;22.00;18.50;;;;;21.13;49.24;101449.58;110270;1250;22443;-39
2023/08/11 00:30:18;;;;;;;;;22.50;18.50;;;;;21.13;49.22;101454.44;110265;1265;22281;-38
2023/08/11 00:32:45;;;;;;;;;21.00;19.00;;;;;21.14;49.38;101454.77;110252;1250;18620;-40
2023/08/11 00:35:11;;;;;;;;;21.00;18.50;;;;;21.13;49.05;101458.95;110294;1250;18754;-39
2023/08/11 00:37:37;;;;;;;;;22.00;22.00;;;;;21.12;49.05;101456.21;110290;1260;20647;-38
2023/08/11 00:40:04;;;;;;;;;22.00;18.50;;;;;21.11;49.01;101457.14;110286;1265;18459;-40
2023/08/11 00:42:30;;;;;;;;;21.50;19.50;;;;;21.11;49.03;101457.73;110291;1249;22306;-39
2023/08/11 00:44:58;;;;;;;;;20.00;18.50;;;;;21.10;49.22;101461.42;110250;1265;20730;-40
2023/08/11 00:47:24;;;;;;;;;19.00;19.00;;;;;21.08;49.19;101462.55;110280;1265;19987;-39
2023/08/11 00:49:50;;;;;;;;;24.50;21.00;;;;;21.04;49.36;101459.50;110265;1265;18371;-39
2023/08/11 00:52:15;;;;;;;;;21.00;19.00;;;;;20.99;49.30;101457.65;110271;1265;19273;-39
2023/08/11 00:54:41;;;;;;;;;19.00;19.00;;;;;20.96;49.52;101456.84;110274;1265;18502;-38
2023/08/11 00:57:07;;;;;;;;;23.50;21.00;;;;;20.96;49.27;101458.00;110266;1257;19954;-39
2023/08/11 00:59:33;;;;;;;;;19.50;18.00;;;;;20.98;49.27;101460.91;110268;1251;20624;-40
2023/08/11 01:01:59;;;;;;;;;21.00;21.00;;;;;20.99;49.05;101457.48;110267;1250;20967;-38
2023/08/11 01:04:25;;;;;;;;;21.00;20.00;;;;;21.02;49.10;101462.27;110276;1250;22618;-39
2023/08/11 01:06:52;;;;;;;;;21.00;21.00;;;;;21.05;48.94;101459.13;110270;1265;20453;-39
2023/08/11 01:09:18;;;;;;;;;24.00;19.00;;;;;21.06;48.86;101460.73;110260;1257;19928;-40
2023/08/11 01:11:44;;;;;;;;;24.00;21.00;;;;;21.05;49.04;101459.46;110263;1249;22235;-39
2023/08/11 01:14:10;;;;;;;;;20.50;18.50;;;;;21.06;49.19;101458.05;110280;1265;20571;-39
2023/08/11 01:16:35;;;;;;;;;21.00;19.00;;;;;21.06;49.18;101456.20;110278;1251;19728;-39
2023/08/11 01:19:02;;;;;;;;;23.00;21.00;;;;;21.06;49.08;101453.15;110222;1251;20214;-39
2023/08/11 01:21:28;;;;;;;;;19.00;18.00;;;;;21.06;49.02;101456.20;110258;1257;22175;-39
2023/08/11 01:23:54;;;;;;;;;24.00;21.00;;;;;21.05;48.99;101450.86;110233;1265;22421;-39
2023/08/11 01:26:20;;;;;;;;;18.00;18.00;;;;;21.04;49.19;101450.52;110290;1265;18777;-38
2023/08/11 01:28:47;;;;;;;;;24.00;21.00;;;;;21.03;49.26;101449.86;110267;1260;20722;-39
2023/08/11 01:31:13;;;;;;;;;21.50;21.50;;;;;21.05;49.11;101451.23;110267;1265;20150;-38
2023/08/11 01:33:39;;;;;;;;;20.00;18.00;;;;;21.06;49.26;101453.37;110248;1265;21145;-39
2023/08/11 01:36:05;;;;;;;;;21.00;20.00;;;;;21.04;49.27;101457.82;110192;1260;21711;-39
2023/08/11 01:38:31;;;;;;;;;19.00;18.00;;;;;21.01;49.35;101454.63;110306;1251;19992;-39
2023/08/11 01:40:57;;;;;;;;;22.00;18.50;;;;;20.98;49.18;101452.41;110267;1251;21009;-38
2023/08/11 01:43:23;;;;;;;;;25.00;19.00;;;;;20.95;48.96;101453.96;110260;1250;20675;-40
2023/08/11 01:45:49;;;;;;;;;20.50;20.00;;;;;20.95;48.96;101451.39;110272;1251;19972;-40
2023/08/11 01:48:15;;;;;;;;;21.00;21.00;;;;;20.91;48.67;101451.73;110250;1265;19812;-39
2023/08/11 01:50:42;;;;;;;;;19.00;19.00;;;;;20.91;48.40;101455.59;110229;1265;19103;-36
2023/08/11 01:53:08;;;;;;;;;21.00;19.00;;;;;20.89;48.23;101451.48;110177;1251;20113;-36
2023/08/11 01:55:35;;;;;;;;;21.00;19.00;;;;;20.87;48.17;101451.45;110220;1250;22482;-38
2023/08/11 01:58:01;;;;;;;;;19.00;19.00;;;;;20.82;47.87;101443.83;110214;1265;19326;-38
2023/08/11 02:00:27;;;;;;;;;20.00;17.50;;;;;20.82;48.13;101450.69;110271;1251;18803;-39
2023/08/11 02:02:53;;;;;;;;;21.00;18.00;;;;;20.82;47.99;101446.66;110318;1254;19834;-40
2023/08/11 02:05:19;;;;;;;;;18.00;18.00;;;;;20.81;47.88;101448.13;110277;1250;20796;-39
2023/08/11 02:07:45;;;;;;;;;18.00;18.00;;;;;20.81;47.79;101447.90;110284;1259;19805;-39
2023/08/11 02:10:11;;;;;;;;;21.00;17.50;;;;;20.81;47.85;101446.77;110243;1251;21868;-40
2023/08/11 02:12:38;;;;;;;;;19.00;18.00;;;;;20.80;47.83;101445.08;110263;1250;22774;-40
2023/08/11 02:15:04;;;;;;;;;19.00;18.00;;;;;20.81;48.08;101445.23;110263;1265;18711;-39
2023/08/11 02:17:31;;;;;;;;;17.50;17.50;;;;;20.79;47.86;101445.67;110283;1249;20315;-39
2023/08/11 02:19:58;;;;;;;;;24.00;21.00;;;;;20.77;47.94;101442.77;110271;1265;19355;-41
2023/08/11 02:22:24;;;;;;;;;17.00;17.00;;;;;20.78;47.75;101441.30;110259;1265;18618;-39
2023/08/11 02:24:49;;;;;;;;;19.50;17.50;;;;;20.78;47.77;101442.02;110284;1251;19933;-39
2023/08/11 02:27:15;;;;;;;;;19.00;18.00;;;;;20.79;47.75;101441.10;110274;1265;20455;-40
2023/08/11 02:29:41;;;;;;;;;21.00;18.00;;;;;20.79;47.59;101438.00;110263;1260;19619;-40
2023/08/11 02:32:08;;;;;;;;;20.00;18.00;;;;;20.78;47.91;101436.78;110275;1251;19957;-39
2023/08/11 02:34:34;;;;;;;;;22.00;19.00;;;;;20.77;47.72;101436.02;110260;1250;20748;-39
2023/08/11 02:37:00;;;;;;;;;22.50;19.50;;;;;20.74;47.82;101438.31;110259;1260;18508;-39
2023/08/11 02:39:26;;;;;;;;;20.00;18.33;;;;;20.75;47.71;101436.79;110293;1251;20155;-39
2023/08/11 02:41:52;;;;;;;;;21.00;19.00;;;;;20.74;47.77;101435.15;110343;1249;22068;-39
2023/08/11 02:44:18;;;;;;;;;19.00;17.00;;;;;20.71;48.05;101435.34;110374;1265;18620;-40
2023/08/11 02:46:45;;;;;;;;;17.00;17.00;;;;;20.69;47.97;101437.11;110346;1265;18497;-38
2023/08/11 02:49:11;;;;;;;;;23.50;18.00;;;;;20.68;47.93;101436.17;110328;1265;19292;-38
2023/08/11 02:51:37;;;;;;;;;20.50;18.50;;;;;20.67;48.20;101433.10;110301;1250;22418;-38
2023/08/11 02:54:04;;;;;;;;;21.50;20.50;;;;;20.66;48.52;101430.16;110262;1265;22325;-39
2023/08/11 02:56:30;;;;;;;;;20.00;18.00;;;;;20.63;48.42;101435.40;110268;1265;19475;-39
2023/08/11 02:58:56;;;;;;;;;17.50;17.50;;;;;20.66;48.47;101437.83;110294;1251;19775;-39
2023/08/11 03:01:22;;;;;;;;;19.00;19.00;;;;;20.68;48.58;101439.06;110259;1251;20135;-40
2023/08/11 03:03:48;;;;;;;;;17.50;17.50;;;;;20.68;48.49;101444.08;110290;1251;20498;-39
2023/08/11 03:06:14;;;;;;;;;18.00;17.00;;;;;20.68;48.12;101444.39;110281;1251;19805;-39
2023/08/11 03:08:40;;;;;;;;;19.00;19.00;;;;;20.68;48.14;101444.02;110272;1250;19938;-40
2023/08/11 03:11:06;;;;;;;;;20.50;17.00;;;;;20.64;47.95;101445.48;110261;1250;19082;-39
2023/08/11 03:13:32;;;;;;;;;21.00;19.00;;;;;20.62;48.24;101445.78;110265;1251;21314;-40
2023/08/11 03:15:58;;;;;;;;;17.50;15.00;;;;;20.62;48.16;101450.04;110271;1260;22110;-40
2023/08/11 03:18:24;;;;;;;;;19.00;18.00;;;;;20.62;47.97;101451.51;110263;1265;22348;-39
2023/08/11 03:20:52;;;;;;;;;21.50;20.50;;;;;20.62;48.30;101451.39;110219;1265;18777;-39
2023/08/11 03:23:18;;;;;;;;;16.00;15.00;;;;;20.61;47.89;101450.45;110308;1251;20300;-41
2023/08/11 03:25:44;;;;;;;;;17.50;17.50;;;;;20.60;48.01;101455.29;110273;1266;19124;-40
2023/08/11 03:28:10;;;;;;;;;15.00;15.00;;;;;20.57;47.48;101453.94;110274;1265;18363;-40
2023/08/11 03:30:36;;;;;;;;;20.00;20.00;;;;;20.57;47.58;101450.02;110286;1265;18591;-39
2023/08/11 03:33:02;;;;;;;;;24.00;21.00;;;;;20.55;47.35;101444.21;110265;1265;19290;-40
2023/08/11 03:35:28;;;;;;;;;20.00;20.00;;;;;20.55;47.26;101449.23;110291;1250;22350;-39
2023/08/11 03:37:53;;;;;;;;;24.00;22.00;;;;;20.56;47.34;101448.70;110229;1265;18509;-38
2023/08/11 03:40:19;;;;;;;;;20.00;20.00;;;;;20.56;47.10;101450.05;110266;1265;22340;-40
2023/08/11 03:42:45;;;;;;;;;20.50;17.50;;;;;20.55;47.23;101448.02;110267;1265;22331;-41
2023/08/11 03:45:12;;;;;;;;;24.00;22.00;;;;;20.54;47.16;101450.52;110255;1265;18622;-40
2023/08/11 03:47:38;;;;;;;;;18.00;17.00;;;;;20.53;47.24;101449.52;110257;1265;22554;-39
2023/08/11 03:50:04;;;;;;;;;20.00;18.00;;;;;20.51;46.88;101452.23;110271;1250;22370;-40
2023/08/11 03:52:30;;;;;;;;;21.00;17.50;;;;;20.51;47.06;101456.64;110252;1251;22293;-39
2023/08/11 03:54:56;;;;;;;;;24.00;21.00;;;;;20.51;47.05;101452.77;110286;1251;20448;-39
2023/08/11 03:57:22;;;;;;;;;24.00;22.00;;;;;20.52;47.11;101458.66;110273;1251;22539;-39
2023/08/11 03:59:48;;;;;;;;;21.00;21.00;;;;;20.48;47.19;101455.16;110262;1265;22864;-39
2023/08/11 04:02:14;;;;;;;;;22.50;22.00;;;;;20.47;46.97;101456.09;110318;1251;20371;-39
2023/08/11 04:04:40;;;;;;;;;23.00;21.00;;;;;20.46;46.99;101452.55;110269;1265;19821;-39
2023/08/11 04:07:06;;;;;;;;;20.00;20.00;;;;;20.47;47.03;101451.84;110263;1260;18519;-39
2023/08/11 04:09:34;;;;;;;;;22.50;21.00;;;;;20.47;46.96;101455.33;110256;1265;19308;-40
2023/08/11 04:11:59;;;;;;;;;21.00;21.00;;;;;20.47;47.06;101452.65;110271;1249;18617;-39
2023/08/11 04:14:25;;;;;;;;;22.00;21.00;;;;;20.46;47.44;101459.16;110255;1265;18954;-39
2023/08/11 04:16:51;;;;;;;;;21.00;18.00;;;;;20.45;47.37;101462.20;110272;1250;20519;-40
2023/08/11 04:19:17;;;;;;;;;21.00;20.00;;;;;20.44;47.38;101464.27;110259;1265;21071;-39
2023/08/11 04:21:43;;;;;;;;;22.00;21.00;;;;;20.45;47.66;101462.80;110263;1249;19889;-39
2023/08/11 04:24:09;;;;;;;;;18.00;18.00;;;;;20.48;47.43;101460.95;110291;1250;20471;-39
2023/08/11 04:26:35;;;;;;;;;20.00;20.00;;;;;20.48;47.72;101461.38;110245;1265;19727;-39
2023/08/11 04:29:01;;;;;;;;;20.00;18.00;;;;;20.46;47.88;101461.88;110253;1265;18355;-38
2023/08/11 04:31:27;;;;;;;;;21.00;18.00;;;;;20.49;47.79;101470.16;110260;1251;23335;-39
2023/08/11 04:33:53;;;;;;;;;24.50;20.00;;;;;20.50;47.95;101464.88;110263;1265;18685;-39
2023/08/11 04:36:19;;;;;;;;;18.00;18.00;;;;;20.50;47.84;101465.16;110260;1265;18644;-39
2023/08/11 04:38:45;;;;;;;;;;;;;;;20.50;47.86;101465.21;110271;1265;20464;-39
2023/08/11 04:41:11;;;;;;;;;20.00;20.00;;;;;20.51;48.09;101462.13;110260;1251;21738;-39
2023/08/11 04:43:38;;;;;;;;;21.00;21.00;;;;;20.52;47.94;101461.39;110295;1250;19861;-39
2023/08/11 04:46:04;;;;;;;;;18.00;18.00;;;;;20.51;48.07;101464.47;110334;1265;20772;-41
2023/08/11 04:48:30;;;;;;;;;21.00;21.00;;;;;20.51;47.83;101465.67;110351;1251;18651;-39
2023/08/11 04:50:56;;;;;;;;;28.00;25.00;;;;;20.53;48.06;101470.42;110352;1251;22073;-39
2023/08/11 04:53:23;;;;;;;;;28.50;27.00;;;;;20.52;48.20;101471.61;110138;1265;20699;-39
2023/08/11 04:55:49;;;;;;;;;34.00;31.00;;;;;20.51;48.20;101474.70;110209;1251;22338;-40
2023/08/11 04:58:14;;;;;;;;;36.50;32.00;;;;;20.54;48.17;101479.21;110288;1251;21115;-39
2023/08/11 05:00:41;;;;;;;;;34.00;33.00;;;;;20.55;48.23;101476.23;110266;1251;20680;-39
2023/08/11 05:03:07;;;;;;;;;31.50;28.50;;;;;20.57;48.51;101482.09;110262;1265;22639;-39
2023/08/11 05:05:33;;;;;;;;;33.00;31.00;;;;;20.60;48.27;101482.34;110284;1251;19906;-40
2023/08/11 05:07:59;;;;;;;;;31.50;30.50;;;;;20.62;48.23;101484.48;110318;1251;20779;-40
2023/08/11 05:10:25;;;;;;;;;32.00;27.00;;;;;20.64;48.41;101486.09;110201;1251;19974;-40
2023/08/11 05:12:51;;;;;;;;;24.50;22.50;;;;;20.65;48.52;101491.17;110267;1265;18672;-39
2023/08/11 05:15:17;;;;;;;;;21.00;20.00;;;;;20.65;48.57;101492.80;110267;1249;21737;-39
2023/08/11 05:17:43;;;;;;;;;27.00;25.00;;;;;20.66;48.35;101490.64;110269;1257;18590;-39
2023/08/11 05:20:09;;;;;;;;;25.50;24.00;;;;;20.63;48.69;101485.11;110284;1249;18469;-40
2023/08/11 05:22:35;;;;;;;;;22.50;21.00;;;;;20.64;48.51;101484.25;110233;1251;22469;-39
2023/08/11 05:25:01;;;;;;;;;28.00;24.00;;;;;20.65;48.65;101485.79;110253;1250;22362;-40
2023/08/11 05:27:27;;;;;;;;;25.00;22.00;;;;;20.62;48.67;101484.88;110274;1251;23008;-39
2023/08/11 05:29:53;;;;;;;;;22.00;21.00;;;;;20.61;48.63;101482.08;110308;1251;20601;-39
2023/08/11 05:32:19;;;;;;;;;19.00;18.00;;;;;20.65;48.68;101486.60;110293;1251;19811;-39
2023/08/11 05:34:45;;;;;;;;;22.00;22.00;;;;;20.68;48.42;101485.06;110274;1250;20032;-39
2023/08/11 05:37:12;;;;;;;;;18.00;17.50;;;;;20.69;48.39;101484.09;110281;1265;19128;-38
2023/08/11 05:39:38;;;;;;;;;21.50;21.50;;;;;20.67;48.33;101480.92;110230;1265;22493;-39
2023/08/11 05:42:04;;;;;;;;;24.00;20.00;;;;;20.67;48.80;101481.34;110189;1265;22668;-39
2023/08/11 05:44:30;;;;;;;;;21.00;19.00;;;;;20.69;48.50;101483.83;110185;1265;19214;-40
2023/08/11 05:46:56;;;;;;;;;19.00;19.00;;;;;20.70;48.60;101485.58;110162;1251;19843;-41
2023/08/11 05:49:22;;;;;;;;;21.00;18.00;;;;;20.72;48.80;101486.75;110173;1251;20028;-39
2023/08/11 05:51:48;;;;;;;;;24.00;21.50;;;;;20.72;48.69;101483.75;110149;1265;22711;-39
2023/08/11 05:54:14;;;;;;;;;20.00;18.00;;;;;20.71;49.12;101484.39;110196;1257;22996;-40
2023/08/11 05:56:40;;;;;;;;;20.00;18.00;;;;;20.74;49.01;101483.89;110238;1251;22315;-39
2023/08/11 05:59:06;;;;;;;;;20.00;20.00;;;;;20.77;49.07;101483.38;110282;1250;20700;-40
2023/08/11 06:01:32;;;;;;;;;22.00;21.00;;;;;20.80;48.81;101486.67;110262;1251;22044;-39
2023/08/11 06:03:58;;;;;;;;;19.00;19.00;;;;;20.82;49.16;101490.05;110272;1251;19999;-40
2023/08/11 06:06:24;;;;;;;;;19.00;18.00;;;;;20.85;49.16;101486.98;110272;1265;19151;-39
2023/08/11 06:08:50;;;;;;;;;23.00;22.00;;;;;20.86;49.47;101485.22;110292;1265;18773;-39
2023/08/11 06:11:16;;;;;;;;;22.00;22.00;;;;;20.89;49.53;101485.15;110272;1251;19989;-40
2023/08/11 06:13:42;;;;;;;;;19.50;17.50;;;;;20.91;49.52;101483.80;110291;1265;19146;-38
2023/08/11 06:16:08;;;;;;;;;18.00;18.00;;;;;20.95;49.81;101487.51;110314;1260;20016;-39
2023/08/11 06:18:34;;;;;;;;;17.00;17.00;;;;;20.98;50.00;101490.86;110302;1265;18450;-40
2023/08/11 06:21:03;;;;;;;;;18.00;18.00;;;;;21.03;49.92;101489.90;110303;1250;19230;-39
2023/08/11 06:23:29;;;;;;;;;18.00;17.00;;;;;21.04;50.13;101493.82;110252;1265;22078;-39
2023/08/11 06:25:55;;;;;;;;;21.00;19.00;;;;;21.09;50.06;101496.39;110265;1265;20049;-39
2023/08/11 06:28:21;;;;;;;;;18.50;18.00;;;;;21.11;50.25;101500.94;110266;1251;20821;-40
2023/08/11 06:30:47;;;;;;;;;18.50;18.50;;;;;21.11;49.94;101499.20;110251;1249;21566;-40
2023/08/11 06:33:13;;;;;;;;;21.00;21.00;;;;;21.14;50.11;101498.35;110272;1250;19881;-40
2023/08/11 06:35:39;;;;;;;;;19.00;18.00;;;;;21.22;49.94;101500.98;110290;1250;20873;-39
2023/08/11 06:38:06;;;;;;;;;19.00;17.00;;;;;21.29;50.26;101504.08;110237;1265;22318;-39
2023/08/11 06:40:32;;;;;;;;;21.00;19.00;;;;;21.32;50.58;101509.72;110183;1265;20277;-40
2023/08/11 06:42:59;;;;;;;;;21.00;19.00;;;;;21.35;50.91;101514.65;110177;1265;21969;-40
2023/08/11 06:45:25;;;;;;;;;18.00;18.00;;;;;21.31;51.18;101517.44;110020;1265;22878;-40
2023/08/11 06:47:51;;;;;;;;;21.67;18.33;;;;;21.30;51.76;101518.09;110265;1251;18650;-39
2023/08/11 06:50:17;;;;;;;;;21.00;19.00;;;;;21.36;51.62;101522.90;110263;1265;20840;-39
2023/08/11 06:52:45;;;;;;;;;22.00;21.00;;;;;21.42;51.92;101524.70;110344;1249;18590;-40
2023/08/11 06:55:11;;;;;;;;;18.50;17.00;;;;;21.44;52.00;101523.05;110366;1265;18643;-39
2023/08/11 06:57:37;;;;;;;;;21.00;19.00;;;;;21.49;52.21;101525.49;110339;1250;20679;-39
2023/08/11 07:00:04;;;;;;;;;22.50;21.50;;;;;21.50;52.55;101529.82;110344;1250;18912;-39
2023/08/11 07:02:30;;;;;;;;;22.33;21.33;;;;;21.56;52.68;101526.88;110285;1265;20523;-38
2023/08/11 07:04:56;;;;;;;;;22.00;21.00;;;;;21.65;52.35;101529.96;110267;1251;20582;-39
2023/08/11 07:07:22;;;;;;;;;23.00;23.00;;;;;21.71;52.12;101530.36;110282;1265;20086;-40
2023/08/11 07:09:48;;;;;;;;;23.00;22.00;;;;;21.76;51.58;101528.77;110253;1251;21287;-39
2023/08/11 07:12:14;;;;;;;;;20.00;19.00;;;;;21.80;51.32;101530.40;110273;1250;20711;-39
2023/08/11 07:14:41;;;;;;;;;19.00;19.00;;;;;21.85;51.22;101532.09;110258;1251;19846;-40
2023/08/11 07:17:07;;;;;;;;;23.00;22.50;;;;;21.91;50.96;101534.98;110256;1250;22088;-38
2023/08/11 07:19:33;;;;;;;;;21.50;20.50;;;;;21.99;50.70;101530.84;110253;1251;21304;-38
2023/08/11 07:21:59;;;;;;;;;23.00;22.00;;;;;22.05;50.35;101534.58;110297;1265;20046;-39
2023/08/11 07:24:25;;;;;;;;;23.00;19.00;;;;;22.08;49.98;101531.88;110287;1265;18845;-39
2023/08/11 07:26:51;;;;;;;;;19.00;18.00;;;;;22.09;49.17;101534.77;110298;1265;19437;-39
2023/08/11 07:29:18;;;;;;;;;19.50;18.00;;;;;22.18;48.79;101533.65;110267;1251;18502;-39
2023/08/11 07:31:44;;;;;;;;;15.50;15.00;;;;;22.22;48.64;101541.76;109917;1265;528451;-39
2023/08/11 07:34:10;;;;;;;;;13.00;13.00;;;;;22.23;48.46;101537.57;110240;1257;20865;-38
2023/08/11 07:36:36;;;;;;;;;13.00;13.00;;;;;22.25;47.80;101533.27;110272;1250;19817;-38
2023/08/11 07:39:02;;;;;;;;;12.00;12.00;;;;;22.33;47.58;101535.84;110300;1250;21307;-38
2023/08/11 07:41:28;;;;;;;;;12.00;12.00;;;;;22.34;46.35;101536.67;110222;1257;20853;-38
2023/08/11 07:43:54;;;;;;;;;16.00;12.00;;;;;22.40;45.76;101537.80;110198;1250;22527;-38
2023/08/11 07:46:21;;;;;;;;;10.00;10.00;;;;;22.39;44.23;101543.53;110327;1251;19960;-38
2023/08/11 07:48:47;;;;;;;;;9.00;9.00;;;;;22.50;43.95;101545.58;110321;1251;19467;-37
2023/08/11 07:51:14;;;;;;;;;11.00;10.50;;;;;22.54;43.17;101542.16;110311;1265;18592;-37
2023/08/11 07:53:44;;;;;;;;;14.00;12.00;;;;;22.59;42.85;101547.00;110342;1265;21523;-38
2023/08/11 07:56:11;;;;;;;;;12.00;11.00;;;;;22.60;42.67;101548.64;110270;1265;19340;-38
2023/08/11 07:58:37;;;;;;;;;9.00;8.00;;;;;22.65;42.10;101550.10;110274;1251;20094;-38
2023/08/11 08:01:03;;;;;;;;;8.00;8.00;;;;;22.54;41.78;101552.54;110277;1265;21835;-38
2023/08/11 08:03:29;;;;;;;;;9.00;8.00;;;;;22.61;41.83;101547.52;110271;1265;20750;-39
2023/08/11 08:05:55;;;;;;;;;12.00;10.00;;;;;22.64;40.97;101551.23;110291;1265;21794;-39
2023/08/11 08:08:21;;;;;;;;;8.50;8.50;;;;;22.77;40.09;101549.75;110325;1265;18683;-38
2023/08/11 08:10:47;;;;;;;;;8.00;8.00;;;;;22.62;40.33;101545.66;110289;1265;20781;-38
2023/08/11 08:13:13;;;;;;;;;9.00;9.00;;;;;22.66;40.30;101546.45;110263;1265;18564;-38
2023/08/11 08:15:39;;;;;;;;;9.00;9.00;;;;;22.57;40.55;101544.96;110258;1250;19930;-39
2023/08/11 08:18:05;;;;;;;;;8.00;6.00;;;;;22.52;40.55;101544.44;110228;1249;20771;-39
2023/08/11 08:20:31;;;;;;;;;7.00;6.00;;;;;22.58;40.15;101543.71;110296;1250;20467;-39
2023/08/11 08:22:57;;;;;;;;;9.00;6.00;;;;;22.54;40.09;101545.55;110251;1265;19059;-39
2023/08/11 08:25:23;;;;;;;;;8.00;8.00;;;;;22.54;40.22;101543.64;110272;1265;19107;-39
2023/08/11 08:27:49;;;;;;;;;8.00;8.00;;;;;22.61;39.82;101548.16;110280;1251;19443;-38
2023/08/11 08:30:15;;;;;;;;;10.00;8.67;;;;;22.65;38.12;101547.30;110242;1265;18637;-39
2023/08/11 08:32:41;;;;;;;;;8.00;6.00;;;;;22.58;38.76;101547.77;110251;1250;19111;-40
2023/08/11 08:35:07;;;;;;;;;9.00;9.00;;;;;22.54;39.18;101545.82;110277;1250;19923;-40
2023/08/11 08:37:33;;;;;;;;;9.00;9.00;;;;;22.57;38.67;101546.10;110257;1250;19779;-40
2023/08/11 08:40:00;;;;;;;;;12.00;8.00;;;;;22.52;38.73;101543.84;110251;1251;20746;-39
2023/08/11 08:42:26;;;;;;;;;6.00;6.00;;;;;22.52;37.94;101542.86;110259;1265;20149;-40
2023/08/11 08:44:52;;;;;;;;;8.00;6.00;;;;;22.44;38.76;101545.54;110282;1265;18396;-40
2023/08/11 08:47:18;;;;;;;;;6.00;5.00;;;;;22.55;38.20;101545.72;110269;1251;20941;-40
2023/08/11 08:49:44;;;;;;;;;5.00;5.00;;;;;22.62;37.58;101545.55;110276;1250;21668;-39
2023/08/11 08:52:10;;;;;;;;;5.00;5.00;;;;;22.61;36.99;101543.35;110315;1250;22181;-39
2023/08/11 08:54:36;;;;;;;;;6.00;6.00;;;;;22.62;36.85;101539.54;110264;1265;19189;-39
2023/08/11 08:57:02;;;;;;;;;5.00;5.00;;;;;22.64;36.50;101538.73;110274;1251;19431;-39
2023/08/11 08:59:28;;;;;;;;;5.00;5.00;;;;;22.72;36.55;101537.41;110276;1265;22315;-39
2023/08/11 09:01:54;;;;;;;;;6.00;5.50;;;;;22.68;36.42;101539.08;110302;1265;19335;-39
2023/08/11 09:04:20;;;;;;;;;;;;;;;22.77;36.34;101538.27;110322;1249;19277;-39
2023/08/11 09:06:46;;;;;;;;;4.00;4.00;;;;;22.70;36.05;101535.38;110333;1251;19602;-39
2023/08/11 09:09:13;;;;;;;;;5.00;5.00;;;;;22.70;36.49;101533.75;110288;1265;19188;-39
2023/08/11 09:11:38;;;;;;;;;5.00;5.00;;;;;22.83;36.42;101529.48;110209;1257;18555;-39
2023/08/11 09:14:04;;;;;;;;;5.50;5.50;;;;;22.75;36.01;101527.34;110304;1265;18503;-39
2023/08/11 09:16:30;;;;;;;;;4.00;4.00;;;;;22.68;36.78;101531.61;110252;1265;19121;-40
2023/08/11 09:18:56;;;;;;;;;5.00;5.00;;;;;22.73;36.03;101530.92;110243;1265;23355;-39
2023/08/11 09:21:22;;;;;;;;;5.00;5.00;;;;;22.84;35.51;101531.34;110283;1249;18363;-39
2023/08/11 09:23:49;;;;;;;;;6.00;6.00;;;;;22.77;35.17;101531.99;110283;1251;20815;-39
2023/08/11 09:26:14;;;;;;;;;5.00;4.00;;;;;22.71;36.05;101533.21;110218;1251;22328;-39
2023/08/11 09:28:40;;;;;;;;;4.00;4.00;;;;;22.69;36.17;101529.91;110235;1266;23556;-39
2023/08/11 09:31:06;;;;;;;;;5.00;5.00;;;;;22.71;35.40;101530.31;110239;1265;19093;-40
2023/08/11 09:33:32;;;;;;;;;5.00;5.00;;;;;22.79;35.32;101528.56;110303;1249;18262;-39
2023/08/11 09:35:58;;;;;;;;;5.00;5.00;;;;;22.85;35.39;101526.86;110264;1265;22197;-40
2023/08/11 09:38:24;;;;;;;;;5.00;5.00;;;;;22.69;36.01;101524.77;110344;1251;20476;-39
2023/08/11 09:40:50;;;;;;;;;5.50;5.50;;;;;22.72;35.66;101530.58;110314;1250;18246;-40
2023/08/11 09:43:17;;;;;;;;;10.00;9.00;;;;;22.80;35.59;101535.67;110247;1265;21141;-39
2023/08/11 09:45:43;;;;;;;;;9.00;8.50;;;;;22.88;35.40;101533.81;110225;1250;21409;-39
2023/08/11 09:48:09;;;;;;;;;8.00;6.00;;;;;22.81;35.13;101533.29;110278;1257;19862;-39
2023/08/11 09:50:35;;;;;;;;;6.00;6.00;;;;;22.90;34.90;101539.02;110307;1260;19756;-38
2023/08/11 09:53:00;;;;;;;;;8.50;8.50;;;;;22.91;34.85;101539.73;110264;1250;21996;-39
2023/08/11 09:55:26;;;;;;;;;8.00;8.00;;;;;22.82;35.08;101539.25;110260;1250;22769;-39
2023/08/11 09:57:52;;;;;;;;;9.00;8.50;;;;;22.84;34.89;101535.33;110270;1250;22297;-39
2023/08/11 10:00:19;;;;;;;;;5.50;5.50;;;;;22.79;35.51;101530.09;110249;1250;20478;-39
2023/08/11 10:02:45;;;;;;;;;6.00;6.00;;;;;22.89;35.16;101533.16;110254;1250;22315;-39
2023/08/11 10:05:11;;;;;;;;;8.50;8.50;;;;;22.82;35.58;101528.65;110264;1265;22331;-38
2023/08/11 10:07:37;;;;;;;;;7.00;7.00;;;;;22.85;35.34;101527.95;110292;1265;19010;-39
2023/08/11 10:10:03;;;;;;;;;8.00;6.00;;;;;22.85;35.21;101534.84;110277;1250;20349;-39
2023/08/11 10:12:29;;;;;;;;;6.00;6.00;;;;;22.86;35.57;101529.55;110246;1250;22312;-38
2023/08/11 10:14:55;;;;;;;;;7.00;7.00;;;;;22.86;35.49;101535.50;110259;1265;22189;-39
2023/08/11 10:17:36;;;;;;;;;9.00;8.00;;;;;22.85;34.52;101530.80;110263;1266;18546;-39
2023/08/11 10:20:05;;;;;;;;;8.00;7.00;;;;;22.71;35.62;101533.96;110319;1265;20021;-39
2023/08/11 10:22:38;;;;;;;;;6.00;5.00;;;;;22.63;36.06;101536.86;110308;1265;20836;-39
2023/08/11 10:25:06;;;;;;;;;6.00;6.00;;;;;22.69;35.89;101542.15;110359;1265;18817;-38
2023/08/11 10:27:33;;;;;;;;;8.00;6.00;;;;;22.71;35.78;101539.54;110306;1250;22163;-39
2023/08/11 10:30:01;;;;;;;;;6.00;6.00;;;;;22.83;35.21;101532.53;110107;1266;19691;-38
2023/08/11 10:32:28;;;;;;;;;8.00;6.00;;;;;22.74;35.62;101531.20;110243;1265;20621;-38
2023/08/11 10:34:54;;;;;;;;;5.00;5.00;;;;;22.74;35.45;101533.06;110332;1265;20050;-40
2023/08/11 10:37:29;;;;;;;;;6.00;6.00;;;;;22.84;34.69;101533.34;110110;1265;20670;-39
2023/08/11 10:40:05;;;;;;;;;7.00;6.00;;;;;23.00;33.71;101529.34;110276;1265;19479;-39
2023/08/11 10:42:32;;;;;;;;;5.50;5.50;;;;;22.91;33.73;101527.23;110104;1265;22806;-39
2023/08/11 10:44:59;;;;;;;;;7.33;7.33;;;;;22.90;34.04;101523.55;110295;1265;19448;-39
2023/08/11 10:47:27;;;;;;;;;8.00;8.00;;;;;23.02;34.73;101526.58;110144;1266;18518;-40
2023/08/11 10:49:54;;;;;;;;;5.00;5.00;;;;;22.91;34.88;101524.21;110346;1265;19871;-38
2023/08/11 10:52:20;;;;;;;;;6.00;6.00;;;;;22.94;35.41;101530.08;110335;1265;20668;-38
2023/08/11 10:54:47;;;;;;;;;6.00;6.00;;;;;22.85;35.69;101524.30;110303;1265;19764;-38
2023/08/11 10:57:15;;;;;;;;;10.00;8.00;;;;;22.74;35.92;101524.53;110280;1265;18682;-38
2023/08/11 10:59:48;;;;;;;;;6.00;6.00;;;;;22.73;36.10;101528.02;110241;1265;19655;-38
2023/08/11 11:02:18;;;;;;;;;5.00;5.00;;;;;22.81;35.55;101528.53;110275;1265;20394;-38